createdAt,value
2022-07-27T00:01:35.814Z,16.67
2022-07-27T00:04:04.107Z,16.56
2022-07-27T00:06:32.362Z,16.42
2022-07-27T00:09:00.649Z,16.37
2022-07-27T00:11:28.981Z,16.22
2022-07-27T00:13:57.201Z,16.27
2022-07-27T00:16:25.472Z,16.08
2022-07-27T00:18:55.136Z,16.04
2022-07-27T00:21:23.423Z,16.10
2022-07-27T00:23:51.656Z,16.01
2022-07-27T00:26:20.123Z,15.79
2022-07-27T00:28:48.354Z,15.63
2022-07-27T00:31:16.806Z,15.88
2022-07-27T00:33:45.202Z,15.99
2022-07-27T00:36:15.000Z,15.91
2022-07-27T00:38:43.247Z,16.00
2022-07-27T00:41:11.523Z,15.99
2022-07-27T00:43:56.165Z,15.96
2022-07-27T00:46:24.724Z,15.94
2022-07-27T00:48:53.719Z,15.87
2022-07-27T00:51:23.640Z,15.77
2022-07-27T00:53:53.403Z,15.67
2022-07-27T00:56:22.643Z,15.61
2022-07-27T00:58:53.005Z,15.56
2022-07-27T01:01:22.345Z,15.57
2022-07-27T01:03:50.745Z,15.52
2022-07-27T01:06:27.058Z,15.44
2022-07-27T01:09:18.395Z,15.43
2022-07-27T01:11:47.322Z,15.36
2022-07-27T01:14:17.535Z,15.36
2022-07-27T01:16:47.045Z,15.32
2022-07-27T01:19:16.326Z,15.28
2022-07-27T01:21:46.179Z,15.26
2022-07-27T01:24:14.505Z,15.27
2022-07-27T01:26:42.894Z,15.21
2022-07-27T01:29:11.434Z,15.16
2022-07-27T01:31:39.999Z,15.05
2022-07-27T01:34:08.313Z,15.01
2022-07-27T01:36:37.451Z,14.93
2022-07-27T01:39:07.303Z,14.90
2022-07-27T01:41:35.533Z,15.03
2022-07-27T01:44:03.829Z,15.13
2022-07-27T01:46:32.432Z,15.06
2022-07-27T01:49:01.005Z,14.78
2022-07-27T01:51:29.595Z,14.71
2022-07-27T01:53:58.173Z,14.73
2022-07-27T01:56:28.074Z,14.72
2022-07-27T01:58:56.593Z,14.72
2022-07-27T02:01:24.874Z,14.60
2022-07-27T02:03:53.356Z,14.47
2022-07-27T02:06:21.616Z,14.53
2022-07-27T02:08:49.835Z,14.40
2022-07-27T02:11:49.239Z,14.36
2022-07-27T02:14:17.753Z,14.38
2022-07-27T02:16:50.662Z,14.49
2022-07-27T02:19:19.223Z,14.43
2022-07-27T02:21:47.467Z,14.47
2022-07-27T02:24:15.676Z,14.54
2022-07-27T02:26:45.351Z,14.58
2022-07-27T02:29:17.691Z,14.60
2022-07-27T02:31:46.707Z,14.59
2022-07-27T02:34:14.848Z,14.65
2022-07-27T02:36:45.645Z,14.60
2022-07-27T02:39:16.715Z,14.54
2022-07-27T02:41:47.819Z,14.39
2022-07-27T02:44:17.769Z,14.18
2022-07-27T02:46:48.978Z,14.25
2022-07-27T02:49:19.929Z,14.36
2022-07-27T02:51:51.887Z,14.19
2022-07-27T02:54:20.100Z,14.25
2022-07-27T02:56:50.344Z,14.29
2022-07-27T02:59:19.157Z,14.35
2022-07-27T03:01:47.624Z,14.26
2022-07-27T03:04:16.323Z,14.23
2022-07-27T03:06:44.845Z,14.20
2022-07-27T03:09:13.810Z,14.20
2022-07-27T03:11:42.429Z,14.20
2022-07-27T03:14:12.005Z,14.18
2022-07-27T03:16:40.097Z,14.16
2022-07-27T03:19:08.479Z,14.26
2022-07-27T03:21:36.792Z,14.09
2022-07-27T03:24:05.037Z,14.07
2022-07-27T03:26:33.504Z,14.04
2022-07-27T03:29:01.457Z,13.65
2022-07-27T03:31:30.984Z,13.89
2022-07-27T03:33:58.996Z,13.98
2022-07-27T03:36:27.006Z,13.95
2022-07-27T03:38:54.960Z,13.71
2022-07-27T03:41:22.979Z,13.72
2022-07-27T03:43:50.959Z,13.73
2022-07-27T03:46:19.038Z,13.74
2022-07-27T03:48:48.513Z,13.56
2022-07-27T03:51:16.539Z,13.70
2022-07-27T03:53:44.856Z,13.92
2022-07-27T03:56:12.886Z,14.03
2022-07-27T03:58:41.428Z,14.05
2022-07-27T04:01:09.444Z,14.17
2022-07-27T04:03:42.386Z,14.16
2022-07-27T04:06:13.566Z,14.06
2022-07-27T04:08:41.578Z,14.06
2022-07-27T04:11:09.667Z,14.22
2022-07-27T04:13:39.954Z,14.40
2022-07-27T04:16:09.366Z,14.41
2022-07-27T04:18:37.338Z,14.52
2022-07-27T04:21:06.499Z,14.54
2022-07-27T04:23:38.280Z,14.64
2022-07-27T04:26:06.957Z,14.68
2022-07-27T04:28:36.174Z,14.72
2022-07-27T04:31:04.219Z,14.88
2022-07-27T04:33:33.135Z,14.98
2022-07-27T04:36:01.227Z,15.09
2022-07-27T04:38:29.218Z,15.00
2022-07-27T04:40:58.613Z,15.09
2022-07-27T04:43:29.032Z,15.10
2022-07-27T04:45:58.000Z,15.12
2022-07-27T04:48:26.107Z,15.15
2022-07-27T04:50:54.776Z,15.07
2022-07-27T04:53:22.826Z,15.07
2022-07-27T04:55:50.886Z,15.11
2022-07-27T04:58:20.416Z,15.16
2022-07-27T05:00:48.893Z,15.25
2022-07-27T05:03:16.978Z,15.22
2022-07-27T05:05:49.976Z,15.31
2022-07-27T05:08:19.330Z,15.26
2022-07-27T05:10:47.721Z,15.35
2022-07-27T05:13:15.757Z,15.31
2022-07-27T05:15:54.253Z,15.38
2022-07-27T05:18:24.026Z,15.46
2022-07-27T05:20:52.186Z,15.67
2022-07-27T05:23:20.196Z,15.68
2022-07-27T05:25:48.287Z,15.58
2022-07-27T05:28:16.296Z,15.72
2022-07-27T05:30:45.744Z,15.72
2022-07-27T05:33:13.846Z,15.62
2022-07-27T05:35:43.016Z,15.69
2022-07-27T05:38:11.108Z,15.72
2022-07-27T05:40:39.298Z,15.76
2022-07-27T05:43:07.410Z,15.89
2022-07-27T05:45:35.572Z,15.97
2022-07-27T05:48:06.117Z,16.05
2022-07-27T05:50:34.247Z,16.18
2022-07-27T05:53:02.376Z,16.46
2022-07-27T05:55:30.679Z,16.71
2022-07-27T05:57:59.077Z,16.71
2022-07-27T06:00:27.386Z,16.84
2022-07-27T06:02:56.011Z,16.68
2022-07-27T06:05:26.407Z,16.92
2022-07-27T06:07:59.554Z,17.25
2022-07-27T06:10:28.550Z,17.27
2022-07-27T06:12:57.447Z,17.22
2022-07-27T06:15:25.964Z,17.51
2022-07-27T06:17:54.278Z,17.92
2022-07-27T06:20:23.956Z,18.10
2022-07-27T06:22:54.888Z,18.03
2022-07-27T06:25:34.485Z,18.00
2022-07-27T06:28:05.326Z,17.83
2022-07-27T06:30:33.769Z,17.75
2022-07-27T06:33:04.362Z,17.75
2022-07-27T06:35:33.107Z,17.91
2022-07-27T06:38:03.548Z,18.24
2022-07-27T06:40:32.402Z,18.45
2022-07-27T06:43:01.297Z,18.48
2022-07-27T06:45:29.748Z,18.91
2022-07-27T06:47:57.800Z,19.03
2022-07-27T06:50:26.173Z,18.98
2022-07-27T06:52:54.218Z,19.02
2022-07-27T06:55:23.674Z,19.16
2022-07-27T06:57:51.718Z,19.24
2022-07-27T07:00:19.828Z,19.36
2022-07-27T07:02:55.097Z,19.37
2022-07-27T07:05:24.327Z,19.41
2022-07-27T07:07:52.905Z,19.46
2022-07-27T07:10:21.760Z,19.44
2022-07-27T07:12:56.191Z,19.65
2022-07-27T07:15:25.239Z,19.89
2022-07-27T07:17:53.527Z,20.19
2022-07-27T07:20:21.576Z,20.38
2022-07-27T07:22:49.577Z,20.56
2022-07-27T07:25:18.144Z,20.62
2022-07-27T07:27:46.157Z,20.68
2022-07-27T07:30:15.938Z,20.93
2022-07-27T07:32:43.947Z,21.11
2022-07-27T07:35:12.518Z,21.46
2022-07-27T07:37:40.706Z,21.32
2022-07-27T07:43:01.124Z,21.09
2022-07-27T07:45:32.157Z,21.05
2022-07-27T07:48:00.263Z,21.15
2022-07-27T07:50:29.269Z,21.02
2022-07-27T07:52:57.405Z,21.07
2022-07-27T07:55:27.761Z,21.19
2022-07-27T07:57:57.261Z,21.15
2022-07-27T08:00:25.818Z,21.25
2022-07-27T08:02:57.914Z,21.07
2022-07-27T08:05:26.848Z,21.23
2022-07-27T08:07:55.239Z,21.54
2022-07-27T08:10:24.233Z,21.52
2022-07-27T08:12:54.210Z,21.27
2022-07-27T08:15:34.605Z,21.51
2022-07-27T08:18:06.002Z,21.84
2022-07-27T08:20:34.744Z,22.11
2022-07-27T08:23:03.589Z,22.37
2022-07-27T08:25:32.047Z,22.37
2022-07-27T08:28:02.755Z,22.62
2022-07-27T08:30:32.421Z,22.93
2022-07-27T08:33:03.086Z,22.94
2022-07-27T08:35:33.257Z,23.08
2022-07-27T08:38:02.238Z,23.09
2022-07-27T08:40:46.813Z,23.59
2022-07-27T08:43:24.002Z,24.17
2022-07-27T08:45:56.758Z,24.64
2022-07-27T08:48:26.317Z,25.48
2022-07-27T08:50:56.238Z,25.79
2022-07-27T08:53:24.996Z,25.58
2022-07-27T08:55:53.536Z,25.24
2022-07-27T08:58:21.607Z,24.75
2022-07-27T09:00:51.109Z,24.64
2022-07-27T09:03:21.840Z,24.98
2022-07-27T09:05:52.768Z,25.46
2022-07-27T09:08:24.690Z,25.01
2022-07-27T09:10:54.775Z,25.27
2022-07-27T09:13:25.428Z,25.84
2022-07-27T09:16:16.956Z,25.53
2022-07-27T09:18:44.156Z,25.15
2022-07-27T09:21:15.016Z,25.80
2022-07-27T09:23:48.223Z,26.12
2022-07-27T09:26:31.751Z,25.81
2022-07-27T09:29:03.226Z,25.48
2022-07-27T09:31:32.067Z,25.08
2022-07-27T09:34:01.474Z,25.11
2022-07-27T09:36:30.962Z,24.93
2022-07-27T09:39:03.805Z,24.57
2022-07-27T09:41:43.166Z,24.56
2022-07-27T09:44:31.237Z,24.39
2022-07-27T09:46:59.788Z,24.28
2022-07-27T09:49:32.234Z,24.42
2022-07-27T09:52:02.209Z,24.25
2022-07-27T09:54:45.389Z,24.14
2022-07-27T09:57:13.738Z,24.01
2022-07-27T09:59:41.951Z,24.04
2022-07-27T10:02:10.458Z,23.88
2022-07-27T10:04:38.686Z,24.32
2022-07-27T10:07:12.484Z,24.70
2022-07-27T10:09:41.176Z,24.57
2022-07-27T10:12:11.347Z,25.19
2022-07-27T10:14:39.400Z,25.49
2022-07-27T10:17:08.339Z,25.76
2022-07-27T10:19:44.977Z,25.39
2022-07-27T10:22:13.116Z,25.53
2022-07-27T10:24:41.197Z,25.99
2022-07-27T10:27:28.249Z,26.00
2022-07-27T10:29:57.737Z,25.78
2022-07-27T10:32:27.267Z,25.07
2022-07-27T10:34:55.565Z,24.65
2022-07-27T10:37:28.087Z,24.26
2022-07-27T10:40:12.771Z,24.32
2022-07-27T10:42:42.548Z,24.61
2022-07-27T10:45:12.494Z,24.83
2022-07-27T10:47:44.778Z,25.12
2022-07-27T10:50:36.698Z,24.97
2022-07-27T10:53:08.051Z,24.56
2022-07-27T10:55:49.747Z,24.19
2022-07-27T10:58:47.805Z,24.66
2022-07-27T11:01:25.061Z,25.18
2022-07-27T11:03:53.885Z,25.69
2022-07-27T11:06:41.970Z,26.36
2022-07-27T11:12:05.368Z,26.18
2022-07-27T11:14:45.128Z,26.67
2022-07-27T11:20:04.079Z,27.00
2022-07-27T11:25:21.917Z,25.92
2022-07-27T11:27:50.767Z,25.42
2022-07-27T11:30:29.417Z,24.92
2022-07-27T11:32:57.743Z,24.49
2022-07-27T11:35:25.888Z,24.09
2022-07-27T11:38:02.031Z,23.92
2022-07-27T11:40:58.092Z,23.73
2022-07-27T11:43:41.543Z,24.02
2022-07-27T11:46:20.664Z,24.39
2022-07-27T11:49:07.897Z,24.62
2022-07-27T11:51:37.499Z,24.93
2022-07-27T11:54:07.269Z,24.88
2022-07-27T11:56:37.101Z,24.92
2022-07-27T11:59:15.047Z,25.18
2022-07-27T12:01:47.520Z,25.10
2022-07-27T12:04:28.619Z,25.24
2022-07-27T12:07:00.859Z,25.24
2022-07-27T12:09:38.233Z,25.14
2022-07-27T12:12:12.413Z,25.02
2022-07-27T12:14:42.393Z,25.35
2022-07-27T12:17:14.033Z,25.82
2022-07-27T12:19:42.896Z,25.93
2022-07-27T12:22:11.140Z,26.25
2022-07-27T12:24:42.493Z,26.85
2022-07-27T12:27:14.516Z,26.82
2022-07-27T12:30:06.987Z,26.74
2022-07-27T12:32:39.649Z,26.87
2022-07-27T12:35:19.251Z,26.78
2022-07-27T12:37:47.357Z,26.94
2022-07-27T12:40:17.128Z,26.16
2022-07-27T12:42:46.437Z,25.49
2022-07-27T12:45:17.156Z,25.03
2022-07-27T12:47:47.138Z,24.89
2022-07-27T12:50:17.159Z,24.61
2022-07-27T12:52:49.032Z,24.53
2022-07-27T12:55:17.888Z,24.36
2022-07-27T12:57:55.750Z,24.41
2022-07-27T13:00:32.667Z,24.52
2022-07-27T13:03:04.255Z,24.48
2022-07-27T13:05:32.835Z,24.31
2022-07-27T13:08:00.979Z,24.28
2022-07-27T13:10:29.158Z,24.31
2022-07-27T13:12:57.348Z,24.41
2022-07-27T13:15:25.538Z,24.54
2022-07-27T13:17:53.685Z,24.47
2022-07-27T13:20:23.939Z,25.22
2022-07-27T13:22:53.178Z,30.29
2022-07-27T13:25:21.619Z,32.78
2022-07-27T13:27:50.479Z,33.11
2022-07-27T13:30:19.578Z,31.94
2022-07-27T13:32:48.134Z,30.78
2022-07-27T13:35:17.082Z,31.12
2022-07-27T13:37:47.069Z,31.19
2022-07-27T13:40:16.114Z,30.63
2022-07-27T13:42:44.338Z,29.45
2022-07-27T13:45:12.905Z,29.88
2022-07-27T13:47:41.588Z,28.54
2022-07-27T13:50:17.722Z,28.12
2022-07-27T13:52:49.008Z,30.96
2022-07-27T13:55:18.259Z,30.58
2022-07-27T13:57:47.338Z,29.49
2022-07-27T14:00:16.261Z,28.35
2022-07-27T14:02:45.382Z,27.80
2022-07-27T14:05:14.701Z,26.87
2022-07-27T14:07:44.685Z,27.62
2022-07-27T14:10:31.766Z,27.49
2022-07-27T14:13:08.402Z,31.43
2022-07-27T14:15:50.378Z,33.68
2022-07-27T14:18:27.302Z,35.45
2022-07-27T14:20:56.099Z,35.41
2022-07-27T14:23:25.245Z,36.16
2022-07-27T14:25:55.878Z,36.77
2022-07-27T14:28:24.918Z,39.09
2022-07-27T14:30:53.277Z,38.83
2022-07-27T14:33:21.349Z,39.19
2022-07-27T14:35:49.617Z,38.56
2022-07-27T14:38:24.899Z,39.33
2022-07-27T14:41:01.856Z,39.53
2022-07-27T14:43:30.938Z,40.74
2022-07-27T14:45:59.337Z,39.60
2022-07-27T14:48:42.662Z,39.91
2022-07-27T14:51:15.744Z,40.09
2022-07-27T14:53:43.796Z,43.12
2022-07-27T14:56:13.244Z,41.80
2022-07-27T14:58:41.428Z,41.26
2022-07-27T15:01:09.614Z,37.89
2022-07-27T15:03:37.748Z,35.00
2022-07-27T15:06:05.788Z,36.39
2022-07-27T15:08:33.866Z,38.51
2022-07-27T15:11:01.876Z,37.25
2022-07-27T15:13:31.249Z,36.10
2022-07-27T15:15:59.316Z,37.28
2022-07-27T15:18:27.343Z,38.90
2022-07-27T15:20:55.845Z,38.23
2022-07-27T15:23:24.098Z,38.01
2022-07-27T15:25:52.342Z,37.92
2022-07-27T15:28:20.414Z,37.14
2022-07-27T15:30:50.036Z,35.96
2022-07-27T15:33:27.013Z,33.88
2022-07-27T15:36:04.692Z,31.85
2022-07-27T15:38:35.937Z,32.40
2022-07-27T15:41:17.165Z,32.82
2022-07-27T15:43:54.071Z,29.99
2022-07-27T15:46:27.364Z,28.97
2022-07-27T15:48:55.819Z,28.34
2022-07-27T15:51:25.112Z,27.99
2022-07-27T15:54:01.139Z,27.59
2022-07-27T15:56:30.434Z,27.11
2022-07-27T15:59:06.239Z,26.86
2022-07-27T16:01:40.615Z,26.78
2022-07-27T16:04:24.329Z,26.50
2022-07-27T16:06:55.265Z,25.95
2022-07-27T16:09:28.166Z,25.78
2022-07-27T16:12:01.719Z,25.65
2022-07-27T16:14:32.227Z,25.63
2022-07-27T16:17:08.916Z,25.67
2022-07-27T16:19:49.513Z,25.19
2022-07-27T16:22:23.025Z,24.79
2022-07-27T16:24:57.161Z,24.92
2022-07-27T16:27:28.796Z,24.99
2022-07-27T16:29:58.260Z,24.94
2022-07-27T16:32:34.949Z,24.76
2022-07-27T16:35:10.161Z,24.73
2022-07-27T16:38:03.932Z,24.56
2022-07-27T16:40:39.132Z,24.64
2022-07-27T16:43:08.433Z,24.85
2022-07-27T16:45:41.289Z,25.09
2022-07-27T16:48:19.713Z,25.55
2022-07-27T16:50:47.971Z,25.68
2022-07-27T16:53:18.990Z,25.47
2022-07-27T16:55:50.948Z,25.37
2022-07-27T16:58:26.447Z,24.49
2022-07-27T17:00:58.106Z,24.09
2022-07-27T17:03:27.697Z,23.94
2022-07-27T17:06:05.684Z,23.65
2022-07-27T17:08:41.531Z,23.96
2022-07-27T17:11:26.768Z,23.76
2022-07-27T17:16:58.006Z,22.68
2022-07-27T17:19:32.084Z,22.52
2022-07-27T17:22:06.773Z,21.38
2022-07-27T17:24:50.316Z,21.15
2022-07-27T17:27:19.104Z,21.13
2022-07-27T17:29:48.929Z,21.27
2022-07-27T17:32:28.957Z,21.24
2022-07-27T17:35:02.286Z,21.10
2022-07-27T17:38:03.512Z,21.11
2022-07-27T17:40:29.012Z,20.81
2022-07-27T17:45:50.942Z,20.58
2022-07-27T17:48:20.878Z,20.42
2022-07-27T17:50:58.611Z,20.54
2022-07-27T17:53:29.617Z,20.48
2022-07-27T17:56:02.920Z,20.42
2022-07-27T17:58:31.239Z,20.48
2022-07-27T18:01:04.003Z,20.48
2022-07-27T18:03:41.811Z,20.38
2022-07-27T18:06:18.007Z,20.28
2022-07-27T18:08:51.200Z,20.12
2022-07-27T18:11:27.724Z,20.17
2022-07-27T18:13:55.915Z,20.21
2022-07-27T18:16:27.043Z,20.23
2022-07-27T18:19:07.893Z,20.12
2022-07-27T18:21:46.644Z,20.23
2022-07-27T18:24:21.346Z,20.06
2022-07-27T18:27:06.371Z,19.93
2022-07-27T18:29:37.251Z,19.82
2022-07-27T18:32:09.716Z,19.68
2022-07-27T18:34:44.716Z,19.59
2022-07-27T18:37:20.367Z,19.46
2022-07-27T18:39:51.474Z,19.46
2022-07-27T18:42:27.336Z,19.37
2022-07-27T18:45:12.632Z,19.30
2022-07-27T18:47:40.741Z,19.25
2022-07-27T18:50:29.166Z,19.13
2022-07-27T18:53:00.028Z,18.96
2022-07-27T18:55:35.471Z,19.00
2022-07-27T18:58:04.374Z,18.92
2022-07-27T19:00:33.559Z,18.88
2022-07-27T19:03:02.547Z,18.82
2022-07-27T19:05:40.471Z,18.85
2022-07-27T19:08:20.820Z,18.74
2022-07-27T19:11:01.421Z,18.70
2022-07-27T19:13:37.845Z,18.65
2022-07-27T19:16:17.042Z,18.46
2022-07-27T19:19:01.811Z,18.49
2022-07-27T19:21:39.488Z,18.47
2022-07-27T19:24:15.116Z,18.49
2022-07-27T19:26:51.486Z,18.40
2022-07-27T19:29:24.026Z,18.37
2022-07-27T19:32:10.837Z,18.28
2022-07-27T19:34:48.463Z,18.18
2022-07-27T19:37:16.662Z,18.26
2022-07-27T19:39:57.304Z,18.38
2022-07-27T19:42:40.621Z,18.37
2022-07-27T19:45:14.440Z,18.25
2022-07-27T19:47:46.533Z,18.09
2022-07-27T19:50:22.634Z,18.16
2022-07-27T19:53:00.789Z,18.17
2022-07-27T19:55:43.589Z,18.03
2022-07-27T19:58:17.531Z,18.04
2022-07-27T20:00:55.237Z,17.90
2022-07-27T20:03:52.228Z,17.80
2022-07-27T20:06:29.880Z,17.91
2022-07-27T20:09:11.326Z,17.88
2022-07-27T20:11:48.721Z,17.88
2022-07-27T20:14:34.414Z,17.93
2022-07-27T20:17:10.357Z,17.81
2022-07-27T20:19:43.244Z,17.90
2022-07-27T20:22:16.245Z,17.83
2022-07-27T20:24:49.131Z,17.78
2022-07-27T20:27:22.160Z,17.86
2022-07-27T20:30:06.331Z,17.76
2022-07-27T20:32:40.203Z,17.65
2022-07-27T20:35:13.095Z,17.55
2022-07-27T20:37:53.240Z,17.61
2022-07-27T20:40:27.635Z,17.64
2022-07-27T20:43:07.352Z,17.61
2022-07-27T20:45:47.873Z,17.55
2022-07-27T20:48:23.292Z,17.53
2022-07-27T20:51:01.537Z,17.48
2022-07-27T20:53:45.228Z,17.38
2022-07-27T20:56:16.332Z,17.21
2022-07-27T20:58:45.971Z,17.23
2022-07-27T21:01:25.595Z,17.12
2022-07-27T21:04:00.343Z,17.14
2022-07-27T21:06:34.904Z,17.07
2022-07-27T21:09:10.985Z,17.05
2022-07-27T21:11:47.670Z,16.93
2022-07-27T21:14:23.947Z,16.92
2022-07-27T21:17:27.015Z,16.84
2022-07-27T21:20:06.534Z,16.75
2022-07-27T21:22:49.931Z,16.68
2022-07-27T21:25:26.612Z,16.65
2022-07-27T21:28:18.354Z,16.55
2022-07-27T21:31:01.933Z,16.51
2022-07-27T21:33:39.776Z,16.52
2022-07-27T21:36:13.215Z,16.35
2022-07-27T21:38:50.201Z,16.40
2022-07-27T21:41:31.686Z,16.30
2022-07-27T21:44:13.024Z,16.12
2022-07-27T21:46:57.041Z,16.06
2022-07-27T21:49:37.616Z,16.09
2022-07-27T21:52:25.175Z,16.05
2022-07-27T21:54:58.251Z,16.07
2022-07-27T22:00:20.293Z,15.84
2022-07-27T22:02:53.712Z,15.80
2022-07-27T22:05:24.815Z,15.90
2022-07-27T22:08:01.939Z,15.81
2022-07-27T22:10:30.949Z,15.76
2022-07-27T22:13:01.988Z,15.76
2022-07-27T22:15:36.719Z,15.74
2022-07-27T22:18:16.129Z,15.66
2022-07-27T22:21:05.595Z,15.63
2022-07-27T22:23:36.536Z,15.57
2022-07-27T22:26:12.141Z,15.54
2022-07-27T22:28:42.382Z,15.43
2022-07-27T22:31:16.628Z,15.43
2022-07-27T22:33:57.030Z,15.33
2022-07-27T22:36:35.006Z,15.32
2022-07-27T22:39:06.125Z,15.42
2022-07-27T22:41:44.279Z,15.35
2022-07-27T22:44:20.519Z,15.36
2022-07-27T22:47:00.318Z,15.25
2022-07-27T22:49:38.381Z,15.15
2022-07-27T22:52:12.307Z,15.05
2022-07-27T22:54:43.442Z,15.20
2022-07-27T22:57:16.092Z,15.26
2022-07-27T22:59:46.491Z,15.22
2022-07-27T23:02:31.542Z,15.17
2022-07-27T23:05:09.243Z,15.05
2022-07-27T23:07:41.061Z,15.03
2022-07-27T23:10:32.846Z,15.03
2022-07-27T23:13:21.306Z,15.01
2022-07-27T23:15:55.206Z,15.00
2022-07-27T23:18:32.702Z,14.89
2022-07-27T23:21:08.368Z,14.92
2022-07-27T23:23:41.004Z,14.78
2022-07-27T23:26:34.300Z,14.76
2022-07-27T23:29:08.516Z,14.65
2022-07-27T23:31:45.231Z,14.69
2022-07-27T23:34:18.339Z,14.70
2022-07-27T23:36:53.859Z,14.67
2022-07-27T23:39:27.764Z,14.60
2022-07-27T23:42:03.471Z,14.61
2022-07-27T23:44:40.107Z,14.56
2022-07-27T23:47:17.444Z,14.45
2022-07-27T23:49:51.140Z,14.53
2022-07-27T23:52:40.502Z,14.61
2022-07-27T23:55:23.973Z,14.62
2022-07-27T23:58:04.111Z,14.57
